createdAt,value
2017-11-24T00:00:21.419Z,1002.24
2017-11-24T00:01:21.399Z,1002.24
2017-11-24T00:02:21.380Z,1002.25
2017-11-24T00:03:21.364Z,1002.22
2017-11-24T00:04:21.350Z,1002.28
2017-11-24T00:05:21.324Z,1002.28
2017-11-24T00:06:21.309Z,1002.25
2017-11-24T00:07:21.284Z,1002.21
2017-11-24T00:08:21.264Z,1002.23
2017-11-24T00:09:21.253Z,1002.18
2017-11-24T00:10:21.230Z,1002.21
2017-11-24T00:11:54.432Z,1002.18
2017-11-24T00:12:21.201Z,1002.18
2017-11-24T00:13:21.186Z,1002.18
2017-11-24T00:14:21.177Z,1002.17
2017-11-24T00:15:21.155Z,1002.21
2017-11-24T00:16:21.132Z,1002.16
2017-11-24T00:17:21.116Z,1002.14
2017-11-24T00:18:21.099Z,1002.12
2017-11-24T00:19:21.082Z,1002.06
2017-11-24T00:20:21.061Z,1002.02
2017-11-24T00:21:21.047Z,1002.06
2017-11-24T00:22:21.022Z,1002.03
2017-11-24T00:23:21.018Z,1002.02
2017-11-24T00:24:20.984Z,1001.99
2017-11-24T00:25:20.967Z,1001.97
2017-11-24T00:26:20.953Z,1001.98
2017-11-24T00:27:20.929Z,1001.95
2017-11-24T00:28:20.912Z,1001.99
2017-11-24T00:29:20.893Z,1002.02
2017-11-24T00:30:20.882Z,1002.05
2017-11-24T00:31:20.865Z,1002.03
2017-11-24T00:32:20.839Z,1001.97
2017-11-24T00:33:20.821Z,1001.99
2017-11-24T00:34:20.801Z,1001.95
2017-11-24T00:35:20.780Z,1001.97
2017-11-24T00:38:05.481Z,1001.92
2017-11-24T00:39:05.463Z,1001.93
2017-11-24T00:40:05.446Z,1001.95
2017-11-24T00:41:05.431Z,1001.89
2017-11-24T00:42:05.412Z,1001.89
2017-11-24T00:43:05.389Z,1001.83
2017-11-24T00:44:05.371Z,1001.86
2017-11-24T00:45:05.360Z,1001.84
2017-11-24T00:46:05.337Z,1001.83
2017-11-24T00:47:05.319Z,1001.84
2017-11-24T00:48:05.299Z,1001.83
2017-11-24T00:49:05.282Z,1001.84
2017-11-24T00:50:05.271Z,1001.84
2017-11-24T00:51:05.249Z,1001.81
2017-11-24T00:52:05.233Z,1001.90
2017-11-24T00:53:05.212Z,1001.94
2017-11-24T00:54:05.192Z,1001.95
2017-11-24T00:55:05.178Z,1001.93
2017-11-24T00:56:05.160Z,1001.92
2017-11-24T00:57:05.139Z,1001.94
2017-11-24T00:58:05.121Z,1001.89
2017-11-24T00:59:05.103Z,1001.92
2017-11-24T01:00:05.092Z,1001.93
2017-11-24T01:01:05.072Z,1001.98
2017-11-24T01:02:05.052Z,1001.94
2017-11-24T01:03:05.030Z,1001.94
2017-11-24T01:04:05.013Z,1001.95
2017-11-24T01:05:04.999Z,1001.95
2017-11-24T01:06:04.973Z,1001.92
2017-11-24T01:07:04.958Z,1001.95
2017-11-24T01:08:04.941Z,1001.96
2017-11-24T01:09:04.920Z,1001.96
2017-11-24T01:10:04.896Z,1001.93
2017-11-24T01:11:04.875Z,1001.94
2017-11-24T01:12:04.860Z,1001.93
2017-11-24T01:13:04.845Z,1001.95
2017-11-24T01:14:04.825Z,1001.93
2017-11-24T01:15:04.806Z,1001.93
2017-11-24T01:16:04.797Z,1001.97
2017-11-24T01:17:04.770Z,1001.96
2017-11-24T01:18:04.767Z,1001.96
2017-11-24T01:19:04.736Z,1001.98
2017-11-24T01:20:04.716Z,1001.92
2017-11-24T01:21:04.708Z,1001.87
2017-11-24T01:22:04.682Z,1001.81
2017-11-24T01:23:04.660Z,1001.80
2017-11-24T01:24:04.645Z,1001.77
2017-11-24T01:25:04.625Z,1001.76
2017-11-24T01:26:04.605Z,1001.73
2017-11-24T01:27:04.598Z,1001.71
2017-11-24T01:28:04.577Z,1001.69
2017-11-24T01:29:04.556Z,1001.69
2017-11-24T01:30:04.539Z,1001.67
2017-11-24T01:31:04.516Z,1001.69
2017-11-24T01:32:04.503Z,1001.69
2017-11-24T01:33:04.487Z,1001.65
2017-11-24T01:34:04.467Z,1001.67
2017-11-24T01:35:04.444Z,1001.60
2017-11-24T01:36:04.425Z,1001.58
2017-11-24T01:37:04.410Z,1001.60
2017-11-24T01:38:04.393Z,1001.59
2017-11-24T01:39:04.375Z,1001.63
2017-11-24T01:40:04.355Z,1001.60
2017-11-24T01:41:04.334Z,1001.57
2017-11-24T01:42:04.315Z,1001.60
2017-11-24T01:43:04.301Z,1001.59
2017-11-24T01:44:04.296Z,1001.60
2017-11-24T01:45:04.266Z,1001.58
2017-11-24T01:46:04.246Z,1001.64
2017-11-24T01:47:04.245Z,1001.63
2017-11-24T01:48:04.215Z,1001.61
2017-11-24T01:49:04.196Z,1001.61
2017-11-24T01:50:04.176Z,1001.61
2017-11-24T01:51:04.158Z,1001.58
2017-11-24T01:52:04.142Z,1001.50
2017-11-24T01:53:04.122Z,1001.45
2017-11-24T01:54:04.100Z,1001.41
2017-11-24T01:55:04.084Z,1001.41
2017-11-24T01:56:04.063Z,1001.41
2017-11-24T01:57:04.053Z,1001.41
2017-11-24T01:58:04.142Z,1001.35
2017-11-24T01:59:04.025Z,1001.31
2017-11-24T02:00:03.994Z,1001.25
2017-11-24T02:01:03.975Z,1001.25
2017-11-24T02:02:03.956Z,1001.26
2017-11-24T02:03:03.939Z,1001.25
2017-11-24T02:04:03.922Z,1001.18
2017-11-24T02:05:03.900Z,1001.10
2017-11-24T02:06:03.884Z,1001.05
2017-11-24T02:07:03.874Z,1001.03
2017-11-24T02:08:03.849Z,1001.01
2017-11-24T02:09:03.828Z,1001.01
2017-11-24T02:10:03.813Z,1001.06
2017-11-24T02:11:03.791Z,1001.01
2017-11-24T02:12:03.774Z,1001.02
2017-11-24T02:13:03.758Z,1001.01
2017-11-24T02:14:03.743Z,1000.93
2017-11-24T02:15:03.721Z,1000.93
2017-11-24T02:16:03.703Z,1000.91
2017-11-24T02:17:03.685Z,1000.92
2017-11-24T02:18:03.677Z,1000.89
2017-11-24T02:19:03.647Z,1000.95
2017-11-24T02:20:03.636Z,1000.94
2017-11-24T02:21:03.612Z,1000.99
2017-11-24T02:22:03.593Z,1001.04
2017-11-24T02:23:03.582Z,1001.02
2017-11-24T02:24:03.561Z,1001.03
2017-11-24T02:25:03.547Z,1000.97
2017-11-24T02:26:03.523Z,1000.93
2017-11-24T02:27:03.507Z,1000.85
2017-11-24T02:28:03.489Z,1000.78
2017-11-24T02:29:03.470Z,1000.78
2017-11-24T02:30:03.456Z,1000.76
2017-11-24T02:31:03.436Z,1000.73
2017-11-24T02:32:03.426Z,1000.73
2017-11-24T02:33:03.408Z,1000.73
2017-11-24T02:34:03.381Z,1000.80
2017-11-24T02:35:03.366Z,1000.80
2017-11-24T02:36:03.344Z,1000.80
2017-11-24T02:37:03.348Z,1000.78
2017-11-24T02:38:03.309Z,1000.74
2017-11-24T02:39:03.294Z,1000.71
2017-11-24T02:40:03.277Z,1000.70
2017-11-24T02:41:03.267Z,1000.64
2017-11-24T02:42:03.248Z,1000.62
2017-11-24T02:43:03.221Z,1000.62
2017-11-24T02:44:03.206Z,1000.62
2017-11-24T02:45:03.194Z,1000.59
2017-11-24T02:46:03.168Z,1000.57
2017-11-24T02:47:03.164Z,1000.52
2017-11-24T02:48:03.134Z,1000.52
2017-11-24T02:49:03.129Z,1000.53
2017-11-24T02:50:03.094Z,1000.50
2017-11-24T02:51:03.084Z,1000.52
2017-11-24T02:52:03.065Z,1000.54
2017-11-24T02:53:03.048Z,1000.47
2017-11-24T02:54:03.025Z,1000.47
2017-11-24T02:55:03.010Z,1000.41
2017-11-24T02:56:02.996Z,1000.36
2017-11-24T02:57:02.981Z,1000.40
2017-11-24T02:58:02.956Z,1000.37
2017-11-24T02:59:02.939Z,1000.39
2017-11-24T03:00:02.926Z,1000.49
2017-11-24T03:01:02.905Z,1000.56
2017-11-24T03:02:02.885Z,1000.61
2017-11-24T03:03:02.885Z,1000.64
2017-11-24T03:04:02.854Z,1000.64
2017-11-24T03:05:02.836Z,1000.66
2017-11-24T03:06:02.815Z,1000.70
2017-11-24T03:07:02.796Z,1000.68
2017-11-24T03:08:02.786Z,1000.65
2017-11-24T03:09:02.759Z,1000.69
2017-11-24T03:10:02.743Z,1000.73
2017-11-24T03:11:02.724Z,1000.80
2017-11-24T03:12:02.710Z,1000.81
2017-11-24T03:13:02.689Z,1000.84
2017-11-24T03:14:02.675Z,1000.88
2017-11-24T03:15:02.665Z,1000.87
2017-11-24T03:16:02.639Z,1000.91
2017-11-24T03:17:02.622Z,1000.93
2017-11-24T03:18:02.602Z,1000.95
2017-11-24T03:19:02.587Z,1000.92
2017-11-24T03:20:02.565Z,1000.88
2017-11-24T03:21:02.553Z,1000.82
2017-11-24T03:22:02.530Z,1000.81
2017-11-24T03:23:02.515Z,1000.76
2017-11-24T03:24:02.496Z,1000.73
2017-11-24T03:25:02.486Z,1000.67
2017-11-24T03:26:02.466Z,1000.61
2017-11-24T03:27:02.463Z,1000.64
2017-11-24T03:28:02.423Z,1000.63
2017-11-24T03:29:02.416Z,1000.64
2017-11-24T03:30:02.397Z,1000.64
2017-11-24T03:31:02.380Z,1000.61
2017-11-24T03:32:02.357Z,1000.58
2017-11-24T03:33:02.346Z,1000.53
2017-11-24T03:34:02.319Z,1000.48
2017-11-24T03:35:02.301Z,1000.47
2017-11-24T03:36:02.288Z,1000.46
2017-11-24T03:37:02.269Z,1000.48
2017-11-24T03:38:02.247Z,1000.59
2017-11-24T03:39:02.252Z,1000.59
2017-11-24T03:40:02.215Z,1000.64
2017-11-24T03:41:02.199Z,1000.65
2017-11-24T03:42:02.175Z,1000.70
2017-11-24T03:43:02.156Z,1000.73
2017-11-24T03:44:02.139Z,1000.79
2017-11-24T03:45:02.133Z,1000.86
2017-11-24T03:46:02.103Z,1000.92
2017-11-24T03:47:02.086Z,1000.94
2017-11-24T03:48:02.065Z,1000.94
2017-11-24T03:49:02.056Z,1000.96
2017-11-24T03:50:02.036Z,1000.97
2017-11-24T03:51:02.016Z,1000.93
2017-11-24T03:52:01.997Z,1000.94
2017-11-24T03:53:01.975Z,1000.97
2017-11-24T03:54:01.968Z,1000.96
2017-11-24T03:55:01.952Z,1000.93
2017-11-24T03:56:01.926Z,1000.86
2017-11-24T03:57:01.911Z,1000.87
2017-11-24T03:58:01.887Z,1000.89
2017-11-24T03:59:01.869Z,1000.83
2017-11-24T04:00:01.856Z,1000.77
2017-11-24T04:01:01.834Z,1000.71
2017-11-24T04:02:01.817Z,1000.67
2017-11-24T04:03:01.800Z,1000.67
2017-11-24T04:04:01.785Z,1000.65
2017-11-24T04:05:01.768Z,1000.64
2017-11-24T04:06:01.742Z,1000.60
2017-11-24T04:07:01.736Z,1000.57
2017-11-24T04:08:01.722Z,1000.49
2017-11-24T04:09:01.690Z,1000.44
2017-11-24T04:10:01.682Z,1000.45
2017-11-24T04:11:01.655Z,1000.45
2017-11-24T04:12:01.644Z,1000.38
2017-11-24T04:13:01.628Z,1000.31
2017-11-24T04:14:01.607Z,1000.33
2017-11-24T04:15:01.585Z,1000.27
2017-11-24T04:16:01.565Z,1000.25
2017-11-24T04:17:01.554Z,1000.31
2017-11-24T04:18:01.532Z,1000.25
2017-11-24T04:19:01.514Z,1000.18
2017-11-24T04:20:01.495Z,1000.21
2017-11-24T04:21:01.483Z,1000.11
2017-11-24T04:22:01.466Z,1000.02
2017-11-24T04:23:01.456Z,1000.00
2017-11-24T04:24:01.423Z,1000.05
2017-11-24T04:25:01.417Z,1000.12
2017-11-24T04:26:01.389Z,1000.13
2017-11-24T04:27:01.378Z,1000.13
2017-11-24T04:28:01.360Z,1000.17
2017-11-24T04:29:01.353Z,1000.13
2017-11-24T04:30:01.321Z,1000.12
2017-11-24T04:31:01.302Z,1000.08
2017-11-24T04:32:01.335Z,1000.08
2017-11-24T04:33:01.267Z,1000.03
2017-11-24T04:34:01.322Z,999.98
2017-11-24T04:35:01.226Z,999.94
2017-11-24T04:36:01.211Z,999.98
2017-11-24T04:37:01.201Z,999.92
2017-11-24T04:38:01.182Z,999.94
2017-11-24T04:39:01.155Z,999.91
2017-11-24T04:40:01.143Z,999.88
2017-11-24T04:41:01.121Z,999.83
2017-11-24T04:42:01.257Z,999.75
2017-11-24T04:43:01.092Z,999.66
2017-11-24T04:44:01.068Z,999.54
2017-11-24T04:45:01.048Z,999.44
2017-11-24T04:46:01.059Z,999.33
2017-11-24T04:47:01.009Z,999.32
2017-11-24T04:48:01.008Z,999.41
2017-11-24T04:49:00.979Z,999.44
2017-11-24T04:50:00.960Z,999.41
2017-11-24T04:51:00.938Z,999.35
2017-11-24T04:52:00.922Z,999.29
2017-11-24T04:53:00.924Z,999.29
2017-11-24T04:54:00.882Z,999.28
2017-11-24T04:55:00.878Z,999.31
2017-11-24T04:56:00.847Z,999.32
2017-11-24T04:57:00.828Z,999.28
2017-11-24T04:58:00.864Z,999.20
2017-11-24T04:59:00.806Z,999.05
2017-11-24T05:00:00.878Z,998.87
2017-11-24T05:01:00.757Z,998.69
2017-11-24T05:02:00.736Z,998.61
2017-11-24T05:03:00.726Z,998.60
2017-11-24T05:04:00.852Z,998.64
2017-11-24T05:05:00.681Z,998.64
2017-11-24T05:06:00.738Z,998.63
2017-11-24T05:07:00.646Z,998.68
2017-11-24T05:08:00.637Z,998.69
2017-11-24T05:09:00.608Z,998.76
2017-11-24T05:10:00.693Z,998.77
2017-11-24T05:11:00.575Z,998.78
2017-11-24T05:12:00.555Z,998.75
2017-11-24T05:13:00.534Z,998.68
2017-11-24T05:14:00.523Z,998.65
2017-11-24T05:15:00.498Z,998.68
2017-11-24T05:16:00.485Z,998.68
2017-11-24T05:17:00.465Z,998.70
2017-11-24T05:18:00.444Z,998.75
2017-11-24T05:19:00.432Z,998.78
2017-11-24T05:20:00.414Z,998.84
2017-11-24T05:21:00.401Z,998.85
2017-11-24T05:22:00.374Z,998.90
2017-11-24T05:23:00.356Z,998.97
2017-11-24T05:24:00.335Z,999.02
2017-11-24T05:25:00.319Z,999.08
2017-11-24T05:26:00.301Z,999.09
2017-11-24T05:27:00.285Z,999.08
2017-11-24T05:28:00.261Z,999.13
2017-11-24T05:29:00.246Z,999.08
2017-11-24T05:30:00.225Z,999.11
2017-11-24T05:31:00.217Z,999.18
2017-11-24T05:32:00.218Z,999.17
2017-11-24T05:33:00.175Z,999.16
2017-11-24T05:34:00.153Z,999.14
2017-11-24T05:35:00.135Z,999.12
2017-11-24T05:36:00.116Z,999.14
2017-11-24T05:37:00.102Z,999.13
2017-11-24T05:38:00.079Z,999.12
2017-11-24T05:39:00.067Z,999.09
2017-11-24T05:40:00.062Z,999.09
2017-11-24T05:41:00.038Z,999.07
2017-11-24T05:42:00.017Z,999.11
2017-11-24T05:43:00.007Z,999.19
2017-11-24T05:43:59.975Z,999.24
2017-11-24T05:44:59.959Z,999.28
2017-11-24T05:45:59.936Z,999.26
2017-11-24T05:46:59.919Z,999.29
2017-11-24T05:47:59.901Z,999.32
2017-11-24T05:48:59.884Z,999.34
2017-11-24T05:49:59.866Z,999.36
2017-11-24T05:50:59.845Z,999.41
2017-11-24T05:51:59.837Z,999.49
2017-11-24T05:52:59.817Z,999.49
2017-11-24T05:53:59.802Z,999.53
2017-11-24T05:54:59.776Z,999.59
2017-11-24T05:55:59.766Z,999.60
2017-11-24T05:56:59.744Z,999.61
2017-11-24T05:57:59.730Z,999.61
2017-11-24T05:58:59.701Z,999.54
2017-11-24T05:59:59.683Z,999.50
2017-11-24T06:00:59.667Z,999.41
2017-11-24T06:01:59.656Z,999.29
2017-11-24T06:02:59.637Z,999.28
2017-11-24T06:03:59.614Z,999.29
2017-11-24T06:04:59.596Z,999.33
2017-11-24T06:05:59.593Z,999.39
2017-11-24T06:06:59.565Z,999.43
2017-11-24T06:07:59.643Z,999.54
2017-11-24T06:08:59.526Z,999.68
2017-11-24T06:09:59.514Z,999.77
2017-11-24T06:10:59.487Z,999.85
2017-11-24T06:11:59.575Z,1000.00
2017-11-24T06:12:59.454Z,1000.10
2017-11-24T06:13:59.481Z,1000.21
2017-11-24T06:14:59.416Z,1000.33
2017-11-24T06:15:59.395Z,1000.37
2017-11-24T06:16:59.387Z,1000.37
2017-11-24T06:17:59.414Z,1000.29
2017-11-24T06:18:59.344Z,1000.20
2017-11-24T06:19:59.336Z,1000.04
2017-11-24T06:20:59.303Z,1000.00
2017-11-24T06:21:59.286Z,1000.02
2017-11-24T06:22:59.264Z,1000.08
2017-11-24T06:23:59.306Z,1000.17
2017-11-24T06:24:59.229Z,1000.22
2017-11-24T06:25:59.316Z,1000.33
2017-11-24T06:26:59.197Z,1000.38
2017-11-24T06:27:59.226Z,1000.42
2017-11-24T06:28:59.159Z,1000.50
2017-11-24T06:29:59.144Z,1000.58
2017-11-24T06:30:59.119Z,1000.63
2017-11-24T06:31:59.102Z,1000.69
2017-11-24T06:32:59.086Z,1000.70
2017-11-24T06:33:59.120Z,1000.77
2017-11-24T06:34:59.067Z,1000.72
2017-11-24T06:35:59.041Z,1000.66
2017-11-24T06:36:59.020Z,1000.53
2017-11-24T06:37:58.992Z,1000.46
2017-11-24T06:38:58.976Z,1000.33
2017-11-24T06:39:58.954Z,1000.30
2017-11-24T06:40:58.936Z,1000.25
2017-11-24T06:41:58.969Z,1000.20
2017-11-24T06:42:58.899Z,1000.14
2017-11-24T06:43:58.930Z,999.97
2017-11-24T06:44:58.864Z,999.64
2017-11-24T06:45:58.895Z,999.38
2017-11-24T06:46:58.826Z,999.33
2017-11-24T06:47:58.811Z,999.40
2017-11-24T06:48:58.787Z,999.52
2017-11-24T06:49:58.782Z,999.59
2017-11-24T06:50:58.759Z,999.56
2017-11-24T06:51:58.763Z,999.52
2017-11-24T06:52:58.717Z,999.48
2017-11-24T06:53:58.701Z,999.44
2017-11-24T06:54:58.677Z,999.34
2017-11-24T06:55:58.664Z,999.31
2017-11-24T06:56:58.643Z,999.29
2017-11-24T06:57:58.621Z,999.26
2017-11-24T06:58:58.609Z,999.24
2017-11-24T06:59:58.586Z,999.23
2017-11-24T07:00:58.567Z,999.18
2017-11-24T07:01:58.552Z,999.16
2017-11-24T07:02:58.534Z,999.13
2017-11-24T07:03:58.518Z,999.18
2017-11-24T07:04:58.493Z,999.13
2017-11-24T07:05:58.471Z,999.12
2017-11-24T07:06:58.457Z,999.06
2017-11-24T07:07:58.436Z,999.06
2017-11-24T07:08:58.418Z,999.01
2017-11-24T07:09:58.399Z,999.02
2017-11-24T07:10:58.384Z,998.99
2017-11-24T07:11:58.362Z,998.94
2017-11-24T07:12:58.342Z,998.89
2017-11-24T07:13:58.327Z,998.88
2017-11-24T07:14:58.306Z,998.91
2017-11-24T07:15:58.292Z,999.00
2017-11-24T07:16:58.272Z,999.14
2017-11-24T07:17:58.260Z,999.33
2017-11-24T07:18:58.235Z,999.52
2017-11-24T07:19:58.218Z,999.67
2017-11-24T07:20:58.196Z,999.77
2017-11-24T07:21:58.177Z,999.79
2017-11-24T07:22:58.155Z,999.80
2017-11-24T07:23:58.144Z,999.89
2017-11-24T07:24:58.137Z,999.88
2017-11-24T07:25:58.109Z,999.92
2017-11-24T07:26:58.085Z,999.89
2017-11-24T07:27:58.065Z,999.87
2017-11-24T07:28:58.045Z,999.86
2017-11-24T07:29:58.025Z,999.84
2017-11-24T07:30:58.007Z,999.87
2017-11-24T07:31:57.986Z,999.88
2017-11-24T07:32:57.976Z,999.91
2017-11-24T07:33:57.952Z,999.93
2017-11-24T07:34:57.934Z,999.94
2017-11-24T07:35:57.914Z,999.93
2017-11-24T07:36:57.903Z,999.96
2017-11-24T07:37:57.875Z,1000.03
2017-11-24T07:38:57.865Z,1000.20
2017-11-24T07:39:57.846Z,1000.28
2017-11-24T07:40:57.823Z,1000.36
2017-11-24T07:41:57.800Z,1000.39
2017-11-24T07:42:57.784Z,1000.40
2017-11-24T07:43:57.764Z,1000.37
2017-11-24T07:44:57.755Z,1000.31
2017-11-24T07:45:57.779Z,1000.32
2017-11-24T07:46:57.709Z,1000.31
2017-11-24T07:47:57.693Z,1000.33
2017-11-24T07:48:57.678Z,1000.32
2017-11-24T07:49:57.656Z,1000.38
2017-11-24T07:50:57.638Z,1000.38
2017-11-24T07:51:57.676Z,1000.39
2017-11-24T07:52:57.604Z,1000.44
2017-11-24T07:53:57.584Z,1000.48
2017-11-24T07:54:57.566Z,1000.52
2017-11-24T07:55:57.547Z,1000.55
2017-11-24T07:56:57.526Z,1000.58
2017-11-24T07:57:57.519Z,1000.64
2017-11-24T07:58:57.492Z,1000.63
2017-11-24T07:59:57.475Z,1000.64
2017-11-24T08:00:57.457Z,1000.66
2017-11-24T08:01:57.485Z,1000.72
2017-11-24T08:02:57.414Z,1000.70
2017-11-24T08:03:57.395Z,1000.71
2017-11-24T08:04:57.379Z,1000.75
2017-11-24T08:05:57.357Z,1000.76
2017-11-24T08:06:57.346Z,1000.78
2017-11-24T08:07:57.329Z,1000.85
2017-11-24T08:08:57.302Z,1000.90
2017-11-24T08:09:57.284Z,1001.03
2017-11-24T08:10:57.264Z,1001.02
2017-11-24T08:11:57.295Z,1001.07
2017-11-24T08:12:57.234Z,1001.06
2017-11-24T08:13:57.214Z,1001.08
2017-11-24T08:14:57.195Z,1001.09
2017-11-24T08:15:57.174Z,1001.11
2017-11-24T08:16:57.160Z,1001.11
2017-11-24T08:17:57.138Z,1001.13
2017-11-24T08:18:57.119Z,1001.12
2017-11-24T08:19:57.111Z,1001.11
2017-11-24T08:20:57.086Z,1001.10
2017-11-24T08:21:57.065Z,1001.09
2017-11-24T08:22:57.045Z,1001.08
2017-11-24T08:23:57.035Z,1001.10
2017-11-24T08:24:57.013Z,1001.13
2017-11-24T08:25:56.996Z,1001.15
2017-11-24T08:26:56.973Z,1001.17
2017-11-24T08:27:56.966Z,1001.16
2017-11-24T08:28:56.938Z,1001.16
2017-11-24T08:29:56.923Z,1001.09
2017-11-24T08:30:56.902Z,1001.09
2017-11-24T08:31:56.879Z,1001.06
2017-11-24T08:32:56.874Z,1001.01
2017-11-24T08:33:56.845Z,1000.98
2017-11-24T08:34:56.827Z,1000.92
2017-11-24T08:35:56.818Z,1000.91
2017-11-24T08:36:56.794Z,1000.98
2017-11-24T08:37:56.771Z,1001.02
2017-11-24T08:38:56.757Z,1001.06
2017-11-24T08:39:56.735Z,1001.13
2017-11-24T08:40:56.731Z,1001.15
2017-11-24T08:41:56.709Z,1001.22
2017-11-24T08:42:56.687Z,1001.20
2017-11-24T08:43:56.663Z,1001.20
2017-11-24T08:44:56.651Z,1001.25
2017-11-24T08:45:56.625Z,1001.22
2017-11-24T08:46:56.609Z,1001.27
2017-11-24T08:47:56.591Z,1001.27
2017-11-24T08:48:56.578Z,1001.25
2017-11-24T08:49:56.555Z,1001.26
2017-11-24T08:50:56.537Z,1001.26
2017-11-24T08:51:56.520Z,1001.23
2017-11-24T08:52:56.511Z,1001.20
2017-11-24T08:53:56.481Z,1001.09
2017-11-24T08:54:56.464Z,1000.95
2017-11-24T08:55:56.444Z,1000.90
2017-11-24T08:56:56.428Z,1000.95
2017-11-24T08:57:56.409Z,1000.99
2017-11-24T08:58:56.394Z,1001.00
2017-11-24T08:59:56.375Z,1001.03
2017-11-24T09:00:56.362Z,1001.04
2017-11-24T09:01:56.344Z,1001.12
2017-11-24T09:02:56.318Z,1001.08
2017-11-24T09:03:56.305Z,1001.05
2017-11-24T09:04:56.286Z,1001.12
2017-11-24T09:05:56.267Z,1001.15
2017-11-24T09:06:56.253Z,1001.18
2017-11-24T09:07:56.230Z,1001.24
2017-11-24T09:08:56.213Z,1001.26
2017-11-24T09:09:56.195Z,1001.35
2017-11-24T09:10:56.184Z,1001.40
2017-11-24T09:11:56.159Z,1001.40
2017-11-24T09:12:56.143Z,1001.46
2017-11-24T09:13:56.125Z,1001.52
2017-11-24T09:14:56.104Z,1001.55
2017-11-24T09:15:56.095Z,1001.61
2017-11-24T09:16:56.075Z,1001.61
2017-11-24T09:17:56.054Z,1001.65
2017-11-24T09:18:56.034Z,1001.65
2017-11-24T09:19:56.015Z,1001.61
2017-11-24T09:20:56.003Z,1001.55
2017-11-24T09:21:55.989Z,1001.60
2017-11-24T09:22:55.977Z,1001.60
2017-11-24T09:23:55.943Z,1001.55
2017-11-24T09:24:55.936Z,1001.61
2017-11-24T09:25:55.914Z,1001.62
2017-11-24T09:26:55.890Z,1001.65
2017-11-24T09:27:55.874Z,1001.63
2017-11-24T09:28:55.855Z,1001.66
2017-11-24T09:29:55.844Z,1001.69
2017-11-24T09:30:55.818Z,1001.70
2017-11-24T09:31:55.804Z,1001.76
2017-11-24T09:32:55.785Z,1001.75
2017-11-24T09:33:55.772Z,1001.78
2017-11-24T09:34:55.752Z,1001.79
2017-11-24T09:35:55.734Z,1001.78
2017-11-24T09:36:55.718Z,1001.76
2017-11-24T09:37:55.703Z,1001.76
2017-11-24T09:38:55.679Z,1001.79
2017-11-24T09:39:55.661Z,1001.77
2017-11-24T09:40:55.656Z,1001.77
2017-11-24T09:41:55.624Z,1001.74
2017-11-24T09:42:55.615Z,1001.73
2017-11-24T09:43:55.597Z,1001.81
2017-11-24T09:44:55.573Z,1001.81
2017-11-24T09:45:55.559Z,1001.89
2017-11-24T09:46:55.540Z,1001.89
2017-11-24T09:47:55.525Z,1001.94
2017-11-24T09:48:55.505Z,1002.00
2017-11-24T09:49:55.484Z,1001.93
2017-11-24T09:50:55.473Z,1002.00
2017-11-24T09:51:55.458Z,1002.03
2017-11-24T09:52:55.434Z,1002.03
2017-11-24T09:53:55.409Z,1002.02
2017-11-24T09:54:55.394Z,1002.01
2017-11-24T09:55:55.376Z,1001.97
2017-11-24T09:56:55.361Z,1001.96
2017-11-24T09:57:55.341Z,1001.94
2017-11-24T09:58:55.324Z,1001.98
2017-11-24T09:59:55.309Z,1001.98
2017-11-24T10:00:55.297Z,1001.97
2017-11-24T10:01:55.278Z,1001.97
2017-11-24T10:02:55.270Z,1002.04
2017-11-24T10:03:55.239Z,1002.09
2017-11-24T10:04:55.217Z,1002.11
2017-11-24T10:05:55.194Z,1002.12
2017-11-24T10:06:55.186Z,1002.14
2017-11-24T10:07:55.165Z,1002.17
2017-11-24T10:08:55.150Z,1002.21
2017-11-24T10:09:55.148Z,1002.23
2017-11-24T10:10:55.113Z,1002.19
2017-11-24T10:11:55.108Z,1002.21
2017-11-24T10:12:55.075Z,1002.21
2017-11-24T10:13:55.059Z,1002.23
2017-11-24T10:14:55.052Z,1002.25
2017-11-24T10:15:55.028Z,1002.27
2017-11-24T10:16:54.998Z,1002.27
2017-11-24T10:17:54.988Z,1002.37
2017-11-24T10:18:54.978Z,1002.35
2017-11-24T10:19:54.959Z,1002.35
2017-11-24T10:20:54.935Z,1002.34
2017-11-24T10:21:54.910Z,1002.35
2017-11-24T10:22:54.896Z,1002.28
2017-11-24T10:23:54.873Z,1002.30
2017-11-24T10:24:54.864Z,1002.28
2017-11-24T10:25:54.838Z,1002.29
2017-11-24T10:26:54.829Z,1002.26
2017-11-24T10:27:54.813Z,1002.28
2017-11-24T10:28:54.784Z,1002.32
2017-11-24T10:29:54.774Z,1002.33
2017-11-24T10:30:54.754Z,1002.33
2017-11-24T10:31:54.734Z,1002.36
2017-11-24T10:32:54.724Z,1002.35
2017-11-24T10:33:54.707Z,1002.32
2017-11-24T10:34:54.686Z,1002.34
2017-11-24T10:35:54.668Z,1002.40
2017-11-24T10:36:54.643Z,1002.42
2017-11-24T10:37:54.627Z,1002.43
2017-11-24T10:38:54.617Z,1002.43
2017-11-24T10:39:54.592Z,1002.46
2017-11-24T10:40:54.576Z,1002.44
2017-11-24T10:41:54.560Z,1002.45
2017-11-24T10:42:54.546Z,1002.47
2017-11-24T10:43:54.530Z,1002.47
2017-11-24T10:44:54.505Z,1002.50
2017-11-24T10:45:54.483Z,1002.48
2017-11-24T10:46:54.465Z,1002.42
2017-11-24T10:47:54.451Z,1002.38
2017-11-24T10:48:54.427Z,1002.41
2017-11-24T10:49:54.414Z,1002.37
2017-11-24T10:50:54.394Z,1002.39
2017-11-24T10:51:54.377Z,1002.42
2017-11-24T10:52:54.360Z,1002.41
2017-11-24T10:53:54.341Z,1002.42
2017-11-24T10:54:54.320Z,1002.40
2017-11-24T10:55:54.303Z,1002.42
2017-11-24T10:56:54.293Z,1002.44
2017-11-24T10:57:54.277Z,1002.48
2017-11-24T10:58:54.255Z,1002.50
2017-11-24T10:59:54.238Z,1002.49
2017-11-24T11:00:54.217Z,1002.54
2017-11-24T11:01:54.195Z,1002.49
2017-11-24T11:02:54.183Z,1002.52
2017-11-24T11:03:54.165Z,1002.51
2017-11-24T11:04:54.155Z,1002.52
2017-11-24T11:05:54.125Z,1002.61
2017-11-24T11:06:54.111Z,1002.59
2017-11-24T11:07:54.098Z,1002.57
2017-11-24T11:08:54.083Z,1002.60
2017-11-24T11:09:54.055Z,1002.66
2017-11-24T11:10:54.041Z,1002.56
2017-11-24T11:11:54.019Z,1002.57
2017-11-24T11:12:54.006Z,1002.63
2017-11-24T11:13:53.988Z,1002.65
2017-11-24T11:14:53.972Z,1002.67
2017-11-24T11:15:53.956Z,1002.71
2017-11-24T11:16:53.933Z,1002.72
2017-11-24T11:17:53.914Z,1002.73
2017-11-24T11:18:53.895Z,1002.71
2017-11-24T11:19:53.889Z,1002.77
2017-11-24T11:20:53.856Z,1002.74
2017-11-24T11:21:53.843Z,1002.79
2017-11-24T11:22:53.825Z,1002.76
2017-11-24T11:23:53.812Z,1002.80
2017-11-24T11:24:53.788Z,1002.82
2017-11-24T11:25:53.771Z,1002.84
2017-11-24T11:26:53.754Z,1002.85
2017-11-24T11:27:53.734Z,1002.83
2017-11-24T11:28:53.724Z,1002.85
2017-11-24T11:29:53.700Z,1002.85
2017-11-24T11:30:53.684Z,1002.82
2017-11-24T11:31:53.673Z,1002.83
2017-11-24T11:32:53.654Z,1002.86
2017-11-24T11:33:53.629Z,1002.88
2017-11-24T11:34:53.612Z,1002.88
2017-11-24T11:35:53.596Z,1002.90
2017-11-24T11:36:53.584Z,1002.93
2017-11-24T11:37:53.558Z,1002.97
2017-11-24T11:38:53.547Z,1002.96
2017-11-24T11:39:53.524Z,1003.01
2017-11-24T11:40:53.501Z,1003.03
2017-11-24T11:41:53.484Z,1003.02
2017-11-24T11:42:53.472Z,1003.04
2017-11-24T11:43:53.450Z,1003.07
2017-11-24T11:44:53.432Z,1003.10
2017-11-24T11:45:53.418Z,1003.11
2017-11-24T11:46:53.394Z,1003.11
2017-11-24T11:47:53.377Z,1003.13
2017-11-24T11:48:53.363Z,1003.14
2017-11-24T11:49:53.347Z,1003.10
2017-11-24T11:50:53.328Z,1003.09
2017-11-24T11:51:53.306Z,1003.11
2017-11-24T11:52:53.291Z,1003.14
2017-11-24T11:53:53.275Z,1003.13
2017-11-24T11:54:53.254Z,1003.14
2017-11-24T11:55:53.234Z,1003.16
2017-11-24T11:56:53.225Z,1003.15
2017-11-24T11:57:53.203Z,1003.17
2017-11-24T11:58:53.183Z,1003.16
2017-11-24T11:59:53.171Z,1003.14
2017-11-24T12:00:53.170Z,1003.17
2017-11-24T12:01:53.128Z,1003.17
2017-11-24T12:02:53.110Z,1003.22
2017-11-24T12:03:53.106Z,1003.24
2017-11-24T12:04:53.075Z,1003.23
2017-11-24T12:05:53.054Z,1003.28
2017-11-24T12:06:53.039Z,1003.27
2017-11-24T12:07:53.019Z,1003.28
2017-11-24T12:08:53.046Z,1003.30
2017-11-24T12:09:52.989Z,1003.32
2017-11-24T12:10:52.966Z,1003.34
2017-11-24T12:11:52.953Z,1003.32